Time;durP1;ratioP1;P1;durP2;ratioP2;P2;SDS_P1;SDS_P2;PMS_P1;PMS_P2;Temp;Humidity;BMP_temperature;BMP_pressure;BME280_temperature;BME280_humidity;BME280_pressure;Samples;Min_cycle;Max_cycle;Signal;HPM_P1;HPM_P2
2021/03/28 00:01:53;;;;;;;22.73;12.45;;;307.80;1868.80;;;;;;4835908;29;20118;-70
2021/03/28 00:04:22;;;;;;;15.88;11.52;;;307.80;1868.80;;;;;;4835657;29;20061;-70
2021/03/28 00:06:47;;;;;;;19.55;13.40;;;307.80;1868.80;;;;;;4842330;29;20105;-70
2021/03/28 00:09:27;;;;;;;21.17;12.75;;;307.80;1868.80;;;;;;4842199;29;20106;-70
2021/03/28 00:12:05;;;;;;;14.50;11.73;;;307.60;1894.40;;;;;;4826138;29;20147;-69
2021/03/28 00:14:51;;;;;;;16.48;12.07;;;307.50;1894.40;;;;;;4842587;29;20034;-70
2021/03/28 00:17:20;;;;;;;17.98;12.25;;;307.50;1894.40;;;;;;4818205;29;20066;-69
2021/03/28 00:20:18;;;;;;;17.85;11.82;;;307.40;1920.00;;;;;;4833901;29;20373;-70
2021/03/28 00:22:57;;;;;;;18.70;12.40;;;307.40;1920.00;;;;;;4772127;29;20501;-70
2021/03/28 00:25:33;;;;;;;23.52;13.15;;;307.40;1920.00;;;;;;4784645;29;20171;-70
2021/03/28 00:28:02;;;;;;;17.52;12.50;;;307.30;1920.00;;;;;;4778657;29;20069;-69
2021/03/28 00:30:36;;;;;;;14.95;11.63;;;307.30;1920.00;;;;;;4766472;30;20497;-69
2021/03/28 00:33:20;;;;;;;18.55;12.65;;;307.20;1920.00;;;;;;4784178;29;20043;-69
2021/03/28 00:36:00;;;;;;;18.15;11.48;;;307.20;1920.00;;;;;;4784786;29;20425;-69
2021/03/28 00:38:43;;;;;;;16.40;10.43;;;307.20;1920.00;;;;;;4786785;29;20491;-69
2021/03/28 00:41:25;;;;;;;19.73;12.10;;;282.50;1894.40;;;;;;4781030;29;20043;-70
2021/03/28 00:44:17;;;;;;;19.85;10.38;;;282.50;1868.80;;;;;;4783175;29;20031;-70
2021/03/28 00:47:04;;;;;;;15.30;11.60;;;282.40;1868.80;;;;;;4798258;29;20073;-69
2021/03/28 00:49:33;;;;;;;14.90;10.85;;;282.40;1868.80;;;;;;4782680;29;20035;-70
2021/03/28 00:52:21;;;;;;;18.10;11.25;;;282.30;1894.40;;;;;;4786726;29;20039;-70
2021/03/28 00:54:55;;;;;;;15.25;11.65;;;282.30;1894.40;;;;;;4792053;29;20038;-69
2021/03/28 00:57:35;;;;;;;16.45;11.10;;;282.30;1868.80;;;;;;4789105;29;20116;-69
2021/03/28 01:00:17;;;;;;;14.43;9.13;;;282.30;1868.80;;;;;;4836726;29;20459;-70
2021/03/28 01:03:01;;;;;;;14.10;9.02;;;282.30;1868.80;;;;;;4847002;29;20033;-70
2021/03/28 01:05:42;;;;;;;11.00;7.72;;;282.30;1843.20;;;;;;4840526;29;20018;-69
2021/03/28 01:08:35;;;;;;;12.95;8.35;;;282.40;1817.60;;;;;;4840952;29;20500;-70
2021/03/28 01:11:10;;;;;;;10.88;7.18;;;282.40;1817.60;;;;;;4753043;30;20052;-70
2021/03/28 01:13:47;;;;;;;12.20;6.88;;;282.50;1792.00;;;;;;4745915;30;20048;-70
2021/03/28 01:16:50;;;;;;;11.23;7.65;;;282.50;1792.00;;;;;;4751948;30;22007;-70
2021/03/28 01:19:27;;;;;;;13.40;7.80;;;307.20;1817.60;;;;;;4751922;30;20502;-70
2021/03/28 01:22:05;;;;;;;9.55;6.50;;;307.20;1817.60;;;;;;4746100;30;20044;-70
2021/03/28 01:24:50;;;;;;;9.77;5.90;;;307.20;1817.60;;;;;;4746065;30;20028;-70
2021/03/28 01:27:19;;;;;;;10.40;6.60;;;307.20;1792.00;;;;;;4749859;30;20113;-70
2021/03/28 01:29:54;;;;;;;8.02;5.82;;;307.20;1792.00;;;;;;4757288;30;20081;-69
2021/03/28 01:32:29;;;;;;;13.57;5.53;;;282.50;1766.40;;;;;;4752508;30;20105;-69
2021/03/28 01:35:07;;;;;;;7.93;5.47;;;307.20;1792.00;;;;;;4754652;30;20041;-69
2021/03/28 01:37:45;;;;;;;6.57;4.85;;;307.20;1792.00;;;;;;4749641;30;20579;-70
2021/03/28 01:40:34;;;;;;;8.18;5.55;;;307.20;1792.00;;;;;;4750686;30;20035;-70
2021/03/28 01:43:09;;;;;;;9.32;6.03;;;282.50;1766.40;;;;;;4745204;30;20484;-70
2021/03/28 01:45:49;;;;;;;8.50;4.97;;;282.50;1766.40;;;;;;4748626;30;20043;-70
2021/03/28 01:48:29;;;;;;;8.27;5.00;;;282.50;1766.40;;;;;;4805575;29;20076;-70
2021/03/28 01:51:10;;;;;;;9.07;5.10;;;282.50;1766.40;;;;;;4834186;29;20117;-70
2021/03/28 01:54:07;;;;;;;7.07;4.40;;;307.20;1766.40;;;;;;4822845;29;20106;-70
2021/03/28 01:56:53;;;;;;;8.55;4.72;;;282.30;1740.80;;;;;;4840033;29;20037;-70
2021/03/28 02:00:03;;;;;;;8.80;5.18;;;307.20;1766.40;;;;;;4839878;29;20034;-69
2021/03/28 02:02:47;;;;;;;8.77;4.47;;;307.20;1766.40;;;;;;4819902;29;20099;-70
2021/03/28 02:05:43;;;;;;;6.55;4.57;;;307.20;1766.40;;;;;;4821308;29;20034;-70
2021/03/28 02:08:41;;;;;;;7.15;3.72;;;282.50;1715.20;;;;;;4841534;29;20472;-70
2021/03/28 02:11:37;;;;;;;5.90;3.50;;;307.20;1740.80;;;;;;4831963;29;20050;-69
2021/03/28 02:14:09;;;;;;;6.93;4.05;;;282.50;1715.20;;;;;;4834857;29;20034;-70
2021/03/28 02:17:13;;;;;;;7.53;3.88;;;282.50;1715.20;;;;;;4839891;29;20072;-70
2021/03/28 02:20:09;;;;;;;8.68;3.88;;;282.50;1715.20;;;;;;4819341;29;20026;-70
2021/03/28 02:22:43;;;;;;;6.70;3.67;;;282.50;1715.20;;;;;;4836348;29;20034;-69
2021/03/28 02:25:15;;;;;;;6.85;3.35;;;282.50;1689.60;;;;;;4839644;29;20150;-70
2021/03/28 02:28:06;;;;;;;7.78;3.78;;;282.50;1689.60;;;;;;4839230;29;20104;-70
2021/03/28 02:30:43;;;;;;;9.40;3.47;;;282.50;1689.60;;;;;;4845468;29;20491;-70
2021/03/28 02:33:38;;;;;;;11.65;4.47;;;282.50;1689.60;;;;;;4841653;29;20030;-69
2021/03/28 02:36:29;;;;;;;14.73;4.05;;;282.50;1664.00;;;;;;4846939;29;20030;-69
2021/03/28 02:39:10;;;;;;;8.43;2.97;;;282.50;1664.00;;;;;;4837599;29;20170;-70
2021/03/28 02:42:01;;;;;;;11.35;3.20;;;282.50;1664.00;;;;;;4839691;29;20026;-69
2021/03/28 02:44:38;;;;;;;10.40;3.60;;;282.50;1664.00;;;;;;4839541;29;20512;-70
2021/03/28 02:47:04;;;;;;;8.05;4.00;;;282.50;1664.00;;;;;;4838859;29;20050;-70
2021/03/28 02:50:11;;;;;;;24.70;4.28;;;282.40;1664.00;;;;;;4823399;29;20030;-70
2021/03/28 02:52:48;;;;;;;10.13;3.05;;;282.50;1664.00;;;;;;4750304;30;20121;-70
2021/03/28 02:55:17;;;;;;;9.88;3.53;;;282.40;1664.00;;;;;;4765056;30;20134;-70
2021/03/28 02:57:45;;;;;;;14.98;3.55;;;282.40;1664.00;;;;;;4765023;30;20052;-70
2021/03/28 03:00:37;;;;;;;7.63;3.42;;;282.40;1664.00;;;;;;4764848;30;20098;-70
2021/03/28 03:03:12;;;;;;;10.13;3.97;;;282.40;1689.60;;;;;;4764662;30;20487;-69
2021/03/28 03:05:54;;;;;;;10.10;3.17;;;282.40;1664.00;;;;;;4766403;30;20028;-70
2021/03/28 03:08:27;;;;;;;6.32;3.53;;;282.40;1689.60;;;;;;4768195;30;20044;-69
2021/03/28 03:10:56;;;;;;;6.13;2.92;;;282.40;1689.60;;;;;;4762710;30;20607;-69
2021/03/28 03:13:43;;;;;;;11.15;3.45;;;282.40;1664.00;;;;;;4768634;30;20040;-69
2021/03/28 03:16:19;;;;;;;4.65;3.10;;;282.40;1689.60;;;;;;4768122;30;20040;-69
2021/03/28 03:19:18;;;;;;;6.28;2.97;;;282.30;1689.60;;;;;;4768545;30;20028;-70
2021/03/28 03:22:22;;;;;;;6.90;3.25;;;282.40;1689.60;;;;;;4768369;30;20029;-69
2021/03/28 03:25:16;;;;;;;11.38;3.67;;;282.30;1689.60;;;;;;4718392;30;20495;-69
2021/03/28 03:28:15;;;;;;;11.98;3.13;;;282.30;1689.60;;;;;;4715482;30;20126;-70
2021/03/28 03:30:49;;;;;;;8.85;3.38;;;282.30;1689.60;;;;;;4763061;30;20046;-70
2021/03/28 03:33:36;;;;;;;9.02;3.22;;;282.30;1689.60;;;;;;4768185;30;20039;-70
2021/03/28 03:36:24;;;;;;;6.60;2.90;;;282.30;1689.60;;;;;;4768114;30;20047;-69
2021/03/28 03:38:55;;;;;;;7.28;2.70;;;282.20;1689.60;;;;;;4762571;30;20066;-70
2021/03/28 03:41:50;;;;;;;12.27;2.50;;;282.20;1689.60;;;;;;4767592;30;20537;-69
2021/03/28 03:44:42;;;;;;;11.25;2.65;;;282.10;1689.60;;;;;;4757764;30;20068;-70
2021/03/28 03:47:33;;;;;;;8.13;3.13;;;282.10;1664.00;;;;;;4745284;30;20414;-70
2021/03/28 03:50:09;;;;;;;11.57;3.38;;;282.10;1664.00;;;;;;4756564;30;20127;-69
2021/03/28 03:52:38;;;;;;;12.40;2.70;;;282.10;1664.00;;;;;;4757156;30;20071;-70
2021/03/28 03:55:11;;;;;;;8.88;2.78;;;282.10;1664.00;;;;;;4744212;29;20032;-71
2021/03/28 03:57:44;;;;;;;10.63;2.53;;;282.00;1664.00;;;;;;4755471;30;20043;-70
2021/03/28 04:00:28;;;;;;;13.68;2.85;;;282.00;1664.00;;;;;;4755530;30;20028;-71
2021/03/28 04:03:00;;;;;;;7.50;3.67;;;282.00;1664.00;;;;;;4773099;29;20036;-70
2021/03/28 04:05:52;;;;;;;4.30;2.28;;;282.00;1638.40;;;;;;4791980;29;20028;-70
2021/03/28 04:08:54;;;;;;;9.32;3.38;;;282.00;1638.40;;;;;;4790375;29;20047;-70
2021/03/28 04:11:38;;;;;;;8.18;1.92;;;281.90;1638.40;;;;;;4788244;29;20489;-70
2021/03/28 04:14:37;;;;;;;7.28;2.38;;;282.00;1638.40;;;;;;4787242;29;20559;-70
2021/03/28 04:17:24;;;;;;;8.55;2.10;;;282.00;1638.40;;;;;;4732334;30;20040;-70
2021/03/28 04:20:14;;;;;;;4.88;1.65;;;282.00;1638.40;;;;;;4736802;30;20196;-70
2021/03/28 04:22:45;;;;;;;6.55;2.28;;;281.90;1612.80;;;;;;4781798;29;20035;-70
2021/03/28 04:25:30;;;;;;;4.43;1.83;;;281.90;1638.40;;;;;;4785324;29;20394;-70
2021/03/28 04:28:26;;;;;;;11.23;2.97;;;281.90;1612.80;;;;;;4777656;30;20880;-70
2021/03/28 04:30:58;;;;;;;9.70;4.10;;;281.90;1612.80;;;;;;4783510;30;20370;-69
2021/03/28 04:33:43;;;;;;;19.42;8.50;;;282.00;1612.80;;;;;;4784867;29;20096;-70
2021/03/28 04:36:19;;;;;;;21.35;8.20;;;281.90;1612.80;;;;;;4785315;29;20115;-70
2021/03/28 04:39:01;;;;;;;10.98;5.18;;;281.90;1612.80;;;;;;4785145;30;20031;-70
2021/03/28 04:42:07;;;;;;;9.30;4.50;;;281.90;1612.80;;;;;;4775868;30;20059;-70
2021/03/28 04:44:47;;;;;;;10.68;3.20;;;281.90;1612.80;;;;;;4769433;30;20597;-70
2021/03/28 04:47:34;;;;;;;6.53;3.17;;;281.90;1638.40;;;;;;4785102;29;20055;-70
2021/03/28 04:50:41;;;;;;;9.82;3.17;;;281.90;1612.80;;;;;;4769910;30;20027;-70
2021/03/28 04:53:57;;;;;;;5.22;2.50;;;282.00;1612.80;;;;;;4819793;29;20049;-70
2021/03/28 04:56:41;;;;;;;8.75;3.45;;;281.90;1612.80;;;;;;4841341;29;20042;-70
2021/03/28 04:59:10;;;;;;;8.02;3.75;;;281.90;1612.80;;;;;;4839207;29;20038;-71
2021/03/28 05:02:21;;;;;;;6.13;2.63;;;281.90;1612.80;;;;;;4840568;29;20036;-70
2021/03/28 05:05:15;;;;;;;20.23;4.20;;;281.90;1612.80;;;;;;4838303;29;20108;-69
2021/03/28 05:08:14;;;;;;;10.02;5.68;;;281.90;1612.80;;;;;;4818888;29;20311;-69
2021/03/28 05:11:01;;;;;;;26.95;13.93;;;281.80;1612.80;;;;;;4841198;29;20044;-70
2021/03/28 05:14:01;;;;;;;24.05;11.18;;;281.80;1612.80;;;;;;4841050;29;20033;-71
2021/03/28 05:16:33;;;;;;;18.23;9.25;;;281.80;1612.80;;;;;;4838646;29;20034;-70
2021/03/28 05:19:31;;;;;;;23.05;9.40;;;281.80;1587.20;;;;;;4840868;29;20025;-70
2021/03/28 05:22:08;;;;;;;11.55;6.65;;;281.80;1587.20;;;;;;4845567;29;20490;-70
2021/03/28 05:25:02;;;;;;;14.98;6.80;;;281.80;1587.20;;;;;;4817549;29;20037;-70
2021/03/28 05:27:43;;;;;;;17.52;9.57;;;281.90;1587.20;;;;;;4838321;29;20075;-70
2021/03/28 05:30:36;;;;;;;14.30;8.30;;;281.80;1587.20;;;;;;4840580;29;20039;-70
2021/03/28 05:33:22;;;;;;;8.18;4.13;;;281.80;1587.20;;;;;;4840219;29;20034;-70
2021/03/28 05:36:02;;;;;;;6.30;2.80;;;281.80;1587.20;;;;;;4840736;29;20125;-70
2021/03/28 05:38:58;;;;;;;4.13;2.40;;;281.90;1587.20;;;;;;4840801;29;20138;-70
2021/03/28 05:41:26;;;;;;;4.82;2.85;;;281.90;1587.20;;;;;;4834914;29;20030;-70
2021/03/28 05:44:19;;;;;;;7.78;2.80;;;282.00;1587.20;;;;;;4824894;29;20063;-70
2021/03/28 05:46:56;;;;;;;6.55;3.42;;;282.00;1587.20;;;;;;4824364;29;20444;-70
2021/03/28 05:50:00;;;;;;;10.52;4.00;;;282.10;1561.60;;;;;;4840604;29;20034;-70
2021/03/28 05:52:38;;;;;;;11.13;4.25;;;282.10;1561.60;;;;;;4837144;29;20120;-70
2021/03/28 05:55:21;;;;;;;9.55;4.47;;;282.10;1561.60;;;;;;4839993;29;20383;-70
2021/03/28 05:58:11;;;;;;;18.50;9.93;;;282.20;1536.00;;;;;;4824221;29;20034;-70
2021/03/28 06:00:47;;;;;;;15.30;6.80;;;282.30;1536.00;;;;;;4836576;29;20030;-70
2021/03/28 06:03:12;;;;;;;14.35;7.50;;;282.30;1536.00;;;;;;4840262;29;20436;-70
2021/03/28 06:06:12;;;;;;;15.98;7.82;;;282.30;1536.00;;;;;;4840295;29;20087;-71
2021/03/28 06:09:13;;;;;;;19.20;9.05;;;282.30;1536.00;;;;;;4823517;29;20026;-70
2021/03/28 06:11:55;;;;;;;19.17;8.93;;;282.30;1536.00;;;;;;4838808;29;20481;-70
2021/03/28 06:14:56;;;;;;;20.48;9.52;;;282.30;1561.60;;;;;;4823856;29;20040;-70
2021/03/28 06:17:41;;;;;;;16.50;6.88;;;282.30;1536.00;;;;;;4823703;29;20029;-70
2021/03/28 06:20:25;;;;;;;14.82;8.05;;;282.50;1536.00;;;;;;4835125;29;20026;-70
2021/03/28 06:23:12;;;;;;;11.32;5.15;;;282.50;1536.00;;;;;;4840374;29;20097;-70
2021/03/28 06:25:59;;;;;;;9.45;3.97;;;307.30;1561.60;;;;;;4823546;29;20030;-71
2021/03/28 06:29:01;;;;;;;8.10;3.63;;;307.50;1536.00;;;;;;4834548;29;20038;-70
2021/03/28 06:31:36;;;;;;;9.43;5.10;;;307.70;1510.40;;;;;;4839874;29;20480;-69
2021/03/28 06:34:20;;;;;;;6.35;2.80;;;307.80;1510.40;;;;;;4840114;29;20034;-69
2021/03/28 06:37:04;;;;;;;4.97;2.75;;;307.90;1484.80;;;;;;4837617;29;20034;-70
2021/03/28 06:39:54;;;;;;;4.93;3.10;;;308.00;1459.20;;;;;;4839824;29;20026;-70
2021/03/28 06:42:54;;;;;;;5.63;3.38;;;308.10;1433.60;;;;;;4828031;29;20033;-70
2021/03/28 06:45:47;;;;;;;8.23;3.88;;;332.90;1459.20;;;;;;4841801;29;20026;-70
2021/03/28 06:48:36;;;;;;;8.23;3.80;;;333.00;1459.20;;;;;;4843504;29;20555;-70
2021/03/28 06:51:26;;;;;;;5.47;2.90;;;332.80;1484.80;;;;;;4827060;29;20392;-70
2021/03/28 06:54:55;;;;;;;6.00;3.17;;;308.10;1459.20;;;;;;4813333;29;20140;-70
2021/03/28 06:57:38;;;;;;;7.13;3.10;;;307.90;1459.20;;;;;;4787418;29;20540;-70
2021/03/28 07:00:15;;;;;;;5.05;3.45;;;307.90;1459.20;;;;;;4795380;29;20039;-70
2021/03/28 07:03:17;;;;;;;14.70;6.68;;;307.90;1484.80;;;;;;4784429;30;20062;-69
2021/03/28 07:06:37;;;;;;;12.73;6.05;;;308.00;1459.20;;;;;;4791238;29;20031;-70
2021/03/28 07:09:31;;;;;;;19.35;10.27;;;308.10;1459.20;;;;;;4736694;30;20567;-70
2021/03/28 07:12:06;;;;;;;18.48;8.88;;;308.10;1484.80;;;;;;4705062;30;20523;-70
2021/03/28 07:15:02;;;;;;;13.20;6.45;;;332.90;1510.40;;;;;;4708603;30;20049;-70
2021/03/28 07:17:42;;;;;;;12.70;6.13;;;333.00;1510.40;;;;;;4703714;30;20088;-69
2021/03/28 07:20:20;;;;;;;9.70;4.72;;;333.30;1484.80;;;;;;4700716;30;20137;-70
2021/03/28 07:23:14;;;;;;;6.45;4.07;;;333.50;1459.20;;;;;;4687840;30;20038;-70
2021/03/28 07:26:03;;;;;;;9.90;5.45;;;333.50;1459.20;;;;;;4698324;30;20041;-70
2021/03/28 07:29:06;;;;;;;9.88;4.68;;;333.70;1459.20;;;;;;4698530;30;20498;-69
2021/03/28 07:31:56;;;;;;;10.90;4.20;;;333.70;1459.20;;;;;;4703504;30;20046;-70
2021/03/28 07:34:46;;;;;;;7.13;4.65;;;358.40;1433.60;;;;;;4738236;30;20068;-70
2021/03/28 07:38:03;;;;;;;11.02;5.05;;;358.40;1459.20;;;;;;4733866;30;20131;-70
2021/03/28 07:40:31;;;;;;;8.15;4.75;;;358.50;1408.00;;;;;;4719331;30;20042;-70
2021/03/28 07:43:12;;;;;;;10.38;4.35;;;358.60;1382.40;;;;;;4706140;30;20499;-70
2021/03/28 07:46:15;;;;;;;7.03;4.13;;;358.60;1382.40;;;;;;4732442;30;20119;-69
2021/03/28 07:49:15;;;;;;;9.63;3.92;;;358.50;1382.40;;;;;;4754100;30;20122;-69
2021/03/28 07:52:18;;;;;;;8.88;3.60;;;358.60;1356.80;;;;;;4749583;30;20122;-70
2021/03/28 07:55:18;;;;;;;6.82;3.58;;;358.60;1356.80;;;;;;4731025;30;20149;-70
2021/03/28 07:57:58;;;;;;;7.25;4.03;;;358.70;1356.80;;;;;;4752608;30;20083;-69
2021/03/28 08:01:03;;;;;;;6.35;3.58;;;358.90;1331.20;;;;;;4747604;30;20025;-69
2021/03/28 08:03:54;;;;;;;5.32;3.25;;;358.90;1305.60;;;;;;4755636;30;20040;-70
2021/03/28 08:06:38;;;;;;;6.28;3.60;;;359.10;1305.60;;;;;;4746327;30;20517;-69
2021/03/28 08:09:35;;;;;;;7.60;3.65;;;359.30;1280.00;;;;;;4751773;30;20067;-70
2021/03/28 08:12:19;;;;;;;6.18;4.07;;;384.00;1254.40;;;;;;4754203;30;20032;-70
2021/03/28 08:15:41;;;;;;;10.18;3.38;;;384.10;1228.80;;;;;;4752298;30;20044;-70
2021/03/28 08:18:13;;;;;;;7.75;4.68;;;384.00;1228.80;;;;;;4708818;30;20068;-70
2021/03/28 08:21:09;;;;;;;6.82;4.32;;;384.10;1228.80;;;;;;4715053;30;20551;-70
2021/03/28 08:24:09;;;;;;;6.43;3.72;;;384.40;1203.20;;;;;;4729457;30;20657;-70
2021/03/28 08:26:40;;;;;;;8.43;4.20;;;384.50;1152.00;;;;;;4736306;30;20054;-70
2021/03/28 08:29:44;;;;;;;5.60;3.30;;;384.70;1152.00;;;;;;4781339;30;20035;-69
2021/03/28 08:32:15;;;;;;;8.98;3.58;;;384.70;1126.40;;;;;;4790220;29;20094;-69
2021/03/28 08:34:41;;;;;;;9.82;4.10;;;384.60;1100.80;;;;;;4784046;29;20045;-70
2021/03/28 08:37:43;;;;;;;8.48;4.13;;;384.70;1100.80;;;;;;4769596;30;20181;-70
2021/03/28 08:40:41;;;;;;;4.93;3.38;;;384.60;1126.40;;;;;;4769097;30;20080;-69
2021/03/28 08:43:24;;;;;;;6.72;3.97;;;384.50;1152.00;;;;;;4780963;29;20047;-70
2021/03/28 08:46:10;;;;;;;5.50;3.70;;;384.60;1126.40;;;;;;4771567;30;20475;-70
2021/03/28 08:48:47;;;;;;;7.45;4.05;;;384.70;1075.20;;;;;;4797271;29;20061;-69
2021/03/28 08:51:43;;;;;;;8.18;4.10;;;384.50;1126.40;;;;;;4824899;29;20112;-69
2021/03/28 08:54:41;;;;;;;5.15;3.05;;;384.40;1100.80;;;;;;4836618;29;20034;-70
2021/03/28 08:57:29;;;;;;;8.85;4.90;;;384.40;1100.80;;;;;;4840608;29;20129;-70
2021/03/28 08:59:58;;;;;;;9.73;5.20;;;384.40;1100.80;;;;;;4836400;29;20094;-69
2021/03/28 09:02:52;;;;;;;8.27;3.95;;;384.30;1075.20;;;;;;4823762;29;20038;-70
2021/03/28 09:05:30;;;;;;;8.45;3.70;;;384.40;1049.60;;;;;;4841023;29;20079;-70
2021/03/28 09:08:10;;;;;;;6.63;3.60;;;384.40;1049.60;;;;;;4841119;29;20034;-69
2021/03/28 09:10:54;;;;;;;5.97;3.15;;;384.20;1024.00;;;;;;4839342;29;20372;-69
2021/03/28 09:13:29;;;;;;;6.38;4.45;;;384.20;998.40;;;;;;4840987;29;20022;-69
2021/03/28 09:16:08;;;;;;;8.70;4.43;;;384.50;998.40;;;;;;4824417;29;20034;-70
2021/03/28 09:19:07;;;;;;;7.57;4.70;;;384.60;972.80;;;;;;4824023;29;20030;-70
2021/03/28 09:21:44;;;;;;;8.27;4.45;;;384.60;921.60;;;;;;4783908;30;20047;-69
2021/03/28 09:24:54;;;;;;;10.90;5.95;;;409.60;947.20;;;;;;4783464;29;20441;-70
2021/03/28 09:27:48;;;;;;;9.93;5.85;;;409.80;947.20;;;;;;4780826;29;20051;-70
2021/03/28 09:30:25;;;;;;;7.65;4.78;;;409.60;947.20;;;;;;4781116;30;20049;-70
2021/03/28 09:33:05;;;;;;;9.20;4.85;;;384.70;947.20;;;;;;4783639;30;20550;-69
2021/03/28 09:36:04;;;;;;;7.32;4.82;;;384.50;972.80;;;;;;4768931;30;20031;-70
2021/03/28 09:39:03;;;;;;;5.72;3.85;;;384.50;998.40;;;;;;4778747;30;20055;-69
2021/03/28 09:41:47;;;;;;;7.75;4.57;;;384.60;998.40;;;;;;4800415;29;20511;-70
2021/03/28 09:44:35;;;;;;;8.10;4.13;;;384.70;998.40;;;;;;4801094;29;20346;-69
2021/03/28 09:47:22;;;;;;;7.13;4.28;;;384.70;998.40;;;;;;4801313;29;20111;-69
2021/03/28 09:49:51;;;;;;;7.00;4.38;;;384.50;1024.00;;;;;;4794720;29;20062;-69
2021/03/28 09:52:32;;;;;;;8.68;3.97;;;384.50;998.40;;;;;;4801352;29;20049;-69
2021/03/28 09:55:33;;;;;;;6.97;4.43;;;384.70;998.40;;;;;;4794880;29;20031;-70
2021/03/28 09:58:18;;;;;;;10.88;3.95;;;409.60;1024.00;;;;;;4813675;29;20721;-69
2021/03/28 10:01:08;;;;;;;6.22;3.47;;;409.80;998.40;;;;;;4843614;29;20029;-69
2021/03/28 10:03:54;;;;;;;8.75;5.18;;;409.90;998.40;;;;;;4842576;29;20033;-69
2021/03/28 10:06:23;;;;;;;9.27;4.70;;;410.40;972.80;;;;;;4825858;29;20030;-70
2021/03/28 10:08:59;;;;;;;5.90;4.57;;;435.20;972.80;;;;;;4822723;29;20388;-70
2021/03/28 10:11:45;;;;;;;8.25;4.43;;;435.40;947.20;;;;;;4840274;29;20085;-69
2021/03/28 10:14:33;;;;;;;9.35;4.10;;;435.20;972.80;;;;;;4837163;29;20504;-69
2021/03/28 10:17:24;;;;;;;6.35;3.45;;;435.40;972.80;;;;;;4835489;29;20027;-70
2021/03/28 10:20:12;;;;;;;9.18;4.30;;;435.40;947.20;;;;;;4834480;29;20156;-70
2021/03/28 10:22:41;;;;;;;6.43;3.90;;;435.80;947.20;;;;;;4821643;29;20420;-70
2021/03/28 10:25:29;;;;;;;10.02;3.90;;;435.90;896.00;;;;;;4831665;29;20031;-70
2021/03/28 10:28:22;;;;;;;5.63;3.45;;;435.70;870.40;;;;;;4838005;29;20049;-70
2021/03/28 10:31:16;;;;;;;13.23;4.00;;;461.10;844.80;;;;;;4838956;29;20025;-70
2021/03/28 10:33:51;;;;;;;6.63;3.45;;;461.50;819.20;;;;;;4830943;29;20047;-70
2021/03/28 10:37:02;;;;;;;5.75;3.28;;;461.50;844.80;;;;;;4832019;29;20030;-70
2021/03/28 10:39:40;;;;;;;9.00;5.15;;;461.50;793.60;;;;;;4815096;29;20022;-70
2021/03/28 10:42:27;;;;;;;4.93;2.40;;;461.60;819.20;;;;;;4821913;29;20057;-71
2021/03/28 10:45:14;;;;;;;6.15;3.42;;;461.50;793.60;;;;;;4813921;29;20507;-70
2021/03/28 10:48:18;;;;;;;7.65;3.63;;;486.70;768.00;;;;;;4836775;29;20034;-70
2021/03/28 10:51:20;;;;;;;5.95;3.72;;;486.50;793.60;;;;;;4762787;30;20955;-71
2021/03/28 10:54:15;;;;;;;6.63;3.90;;;486.40;768.00;;;;;;4763495;30;20513;-70
2021/03/28 10:56:58;;;;;;;10.75;3.55;;;461.20;844.80;;;;;;4763860;30;20040;-71
2021/03/28 10:59:46;;;;;;;8.60;4.13;;;461.10;819.20;;;;;;4760886;30;20043;-71
2021/03/28 11:02:30;;;;;;;6.75;3.75;;;435.90;844.80;;;;;;4764235;30;20040;-70
2021/03/28 11:05:24;;;;;;;6.50;4.95;;;435.70;844.80;;;;;;4749133;30;20119;-71
2021/03/28 11:08:12;;;;;;;12.57;5.00;;;435.40;870.40;;;;;;4762103;30;20055;-71
2021/03/28 11:11:05;;;;;;;6.13;4.30;;;410.50;870.40;;;;;;4761811;30;20029;-71
2021/03/28 11:13:57;;;;;;;7.20;3.92;;;410.00;921.60;;;;;;4762397;30;20028;-71
2021/03/28 11:16:52;;;;;;;4.00;2.53;;;409.80;870.40;;;;;;4764264;30;20123;-71
2021/03/28 11:19:46;;;;;;;9.82;4.32;;;384.70;844.80;;;;;;4762619;30;20039;-70
2021/03/28 11:22:59;;;;;;;8.30;4.40;;;384.60;870.40;;;;;;4770045;30;20078;-70
2021/03/28 11:25:27;;;;;;;11.10;4.90;;;384.50;896.00;;;;;;4764822;30;20031;-70
2021/03/28 11:28:16;;;;;;;9.50;5.68;;;384.30;896.00;;;;;;4812326;29;20198;-71
2021/03/28 11:30:48;;;;;;;7.20;4.47;;;384.20;921.60;;;;;;4839859;29;20030;-71
2021/03/28 11:33:29;;;;;;;7.35;4.88;;;384.00;896.00;;;;;;4836733;29;20547;-71
2021/03/28 11:35:54;;;;;;;7.55;3.90;;;384.20;870.40;;;;;;4839374;29;20113;-71
2021/03/28 11:38:20;;;;;;;8.73;4.90;;;384.30;870.40;;;;;;4841174;29;20453;-71
2021/03/28 11:40:53;;;;;;;9.07;4.78;;;384.50;870.40;;;;;;4842203;29;20021;-71
2021/03/28 11:43:30;;;;;;;10.35;5.10;;;384.70;870.40;;;;;;4823873;29;20464;-71
2021/03/28 11:46:05;;;;;;;6.05;4.05;;;409.80;896.00;;;;;;4843056;29;20026;-71
2021/03/28 11:48:33;;;;;;;6.55;4.05;;;410.00;896.00;;;;;;4840322;29;20030;-71
2021/03/28 11:51:24;;;;;;;11.25;6.72;;;409.90;870.40;;;;;;4823274;29;20021;-72
2021/03/28 11:54:11;;;;;;;13.05;6.88;;;409.80;870.40;;;;;;4825207;29;20437;-71
2021/03/28 11:56:54;;;;;;;12.75;8.15;;;409.90;896.00;;;;;;4820933;29;20030;-72
2021/03/28 11:59:22;;;;;;;12.38;4.30;;;409.80;896.00;;;;;;4841355;29;20030;-71
2021/03/28 12:01:58;;;;;;;14.30;4.22;;;409.60;844.80;;;;;;4839688;29;20025;-72
2021/03/28 12:04:26;;;;;;;;;;;409.70;844.80;;;;;;4840089;29;20030;-71
2021/03/28 12:07:19;;;;;;;5.28;2.85;;;409.80;844.80;;;;;;4842641;29;20482;-71
2021/03/28 12:09:59;;;;;;;7.53;4.10;;;410.00;768.00;;;;;;4841764;29;20026;-72
2021/03/28 12:12:25;;;;;;;10.52;4.82;;;410.10;768.00;;;;;;4841568;29;20030;-71
2021/03/28 12:14:51;;;;;;;7.28;3.67;;;410.50;793.60;;;;;;4841148;29;20744;-71
2021/03/28 12:17:24;;;;;;;8.18;4.85;;;435.20;793.60;;;;;;4841769;29;20072;-71
2021/03/28 12:20:14;;;;;;;7.93;4.07;;;435.40;793.60;;;;;;4839679;29;20102;-71
2021/03/28 12:22:43;;;;;;;13.82;4.28;;;435.20;793.60;;;;;;4840175;29;20014;-71
2021/03/28 12:25:15;;;;;;;6.75;3.25;;;435.50;793.60;;;;;;4839201;29;20034;-71
2021/03/28 12:27:48;;;;;;;10.35;4.32;;;435.70;768.00;;;;;;4840318;29;20356;-71
2021/03/28 12:30:29;;;;;;;9.68;4.93;;;460.80;793.60;;;;;;4841009;29;20022;-71
2021/03/28 12:33:08;;;;;;;6.93;3.25;;;461.10;793.60;;;;;;4821463;29;20061;-70
2021/03/28 12:35:39;;;;;;;6.53;3.22;;;461.30;768.00;;;;;;4822599;29;20057;-70
2021/03/28 12:38:25;;;;;;;10.80;3.83;;;461.00;768.00;;;;;;4841547;29;20030;-70
2021/03/28 12:41:13;;;;;;;9.45;5.22;;;461.30;768.00;;;;;;4823845;29;20504;-70
2021/03/28 12:43:59;;;;;;;6.47;2.83;;;461.30;768.00;;;;;;4840576;29;20045;-70
2021/03/28 12:46:27;;;;;;;7.10;3.72;;;461.30;716.80;;;;;;4849106;29;20550;-69
2021/03/28 12:49:33;;;;;;;6.85;3.10;;;461.50;716.80;;;;;;4840554;29;20041;-70
2021/03/28 12:52:11;;;;;;;6.15;3.10;;;461.70;716.80;;;;;;4824301;29;20030;-70
2021/03/28 12:55:00;;;;;;;7.93;4.65;;;486.90;716.80;;;;;;4840928;29;20026;-70
2021/03/28 12:57:37;;;;;;;5.93;2.90;;;487.30;716.80;;;;;;4834678;29;20061;-70
2021/03/28 13:00:45;;;;;;;7.95;3.13;;;512.30;691.20;;;;;;4838712;29;20373;-70
2021/03/28 13:03:31;;;;;;;4.82;3.03;;;537.70;691.20;;;;;;4783468;29;20046;-70
2021/03/28 13:06:03;;;;;;;5.45;3.25;;;512.60;665.60;;;;;;4772705;30;20031;-70
2021/03/28 13:08:39;;;;;;;7.53;3.35;;;538.30;665.60;;;;;;4783461;29;20042;-71
2021/03/28 13:11:06;;;;;;;6.32;3.25;;;538.40;665.60;;;;;;4791920;29;20128;-71
2021/03/28 13:13:41;;;;;;;6.07;2.72;;;538.30;665.60;;;;;;4791203;29;20043;-71
2021/03/28 13:16:25;;;;;;;5.75;2.63;;;538.10;665.60;;;;;;4785318;29;20031;-72
2021/03/28 13:18:52;;;;;;;5.82;2.92;;;512.30;691.20;;;;;;4790086;29;20183;-72
2021/03/28 13:21:22;;;;;;;7.97;6.00;;;537.60;691.20;;;;;;4786143;29;20051;-72
2021/03/28 13:23:48;;;;;;;4.70;2.50;;;538.10;665.60;;;;;;4768684;29;20527;-71
2021/03/28 13:26:58;;;;;;;9.15;2.92;;;537.70;691.20;;;;;;4769963;29;20118;-71
2021/03/28 13:29:59;;;;;;;7.32;3.03;;;537.70;691.20;;;;;;4768999;29;20041;-71
2021/03/28 13:32:25;;;;;;;5.55;3.38;;;512.20;665.60;;;;;;4784503;29;20070;-71
2021/03/28 13:35:02;;;;;;;6.97;2.83;;;512.30;665.60;;;;;;4786930;29;20034;-71
2021/03/28 13:37:31;;;;;;;9.82;5.18;;;512.70;691.20;;;;;;4775268;29;20046;-71
2021/03/28 13:40:14;;;;;;;5.68;3.30;;;537.60;691.20;;;;;;4801965;29;20030;-71
2021/03/28 13:42:44;;;;;;;7.00;3.10;;;512.70;665.60;;;;;;4840453;29;20049;-72
2021/03/28 13:45:16;;;;;;;7.03;3.60;;;512.50;665.60;;;;;;4824633;29;20025;-72